createdAt,value
2019-04-21T00:00:22.779Z,17.6
2019-04-21T00:01:24.242Z,17.5
2019-04-21T00:02:32.263Z,17.6
2019-04-21T00:03:33.367Z,17.5
2019-04-21T00:04:40.765Z,17.5
2019-04-21T00:05:43.114Z,17.5
2019-04-21T00:06:51.043Z,17.4
2019-04-21T00:07:51.029Z,17.3
2019-04-21T00:08:56.602Z,17.3
2019-04-21T00:10:59.349Z,17.3
2019-04-21T00:11:59.837Z,17.1
2019-04-21T00:12:51.810Z,17.1
2019-04-21T00:13:53.848Z,17.2
2019-04-21T00:14:49.453Z,17.2
2019-04-21T00:15:48.916Z,17.2
2019-04-21T00:16:51.066Z,17.2
2019-04-21T00:17:50.834Z,17.2
2019-04-21T00:18:55.795Z,17.1
2019-04-21T00:19:47.648Z,17.1
2019-04-21T00:20:52.655Z,17.1
2019-04-21T00:21:56.608Z,17.2
2019-04-21T00:23:05.942Z,17.1
2019-04-21T00:24:07.705Z,17.1
2019-04-21T00:25:09.659Z,17.0
2019-04-21T00:26:03.053Z,17.0
2019-04-21T00:27:09.898Z,16.9
2019-04-21T00:28:17.049Z,16.9
2019-04-21T00:29:27.534Z,16.9
2019-04-21T00:30:23.657Z,16.7
2019-04-21T00:31:22.102Z,16.7
2019-04-21T00:32:17.866Z,16.6
2019-04-21T00:33:12.450Z,16.5
2019-04-21T00:34:06.639Z,16.5
2019-04-21T00:35:11.684Z,16.5
2019-04-21T00:36:14.897Z,16.4
2019-04-21T00:37:18.927Z,16.3
2019-04-21T00:38:32.680Z,16.1
2019-04-21T00:39:43.902Z,16.2
2019-04-21T00:40:34.557Z,16.2
2019-04-21T00:41:39.588Z,16.0
2019-04-21T00:42:34.289Z,16.1
2019-04-21T00:43:35.328Z,16.2
2019-04-21T00:44:29.822Z,16.1
2019-04-21T00:45:36.489Z,16.1
2019-04-21T00:46:35.147Z,16.2
2019-04-21T00:47:39.850Z,16.3
2019-04-21T00:48:47.638Z,16.3
2019-04-21T00:49:45.254Z,16.4
2019-04-21T00:51:07.966Z,16.4
2019-04-21T00:51:55.479Z,16.3
2019-04-21T00:52:56.531Z,16.3
2019-04-21T00:54:02.778Z,16.2
2019-04-21T00:54:58.572Z,16.2
2019-04-21T00:55:59.868Z,16.0
2019-04-21T00:58:06.590Z,16.0
2019-04-21T00:58:59.864Z,16.1
2019-04-21T00:59:59.706Z,16.0
2019-04-21T01:01:02.233Z,16.0
2019-04-21T01:01:59.717Z,15.9
2019-04-21T01:03:09.402Z,15.9
2019-04-21T01:04:02.230Z,16.1
2019-04-21T01:05:10.911Z,16.0
2019-04-21T01:06:09.741Z,15.9
2019-04-21T01:07:15.433Z,16.1
2019-04-21T01:08:09.403Z,16.2
2019-04-21T01:09:09.495Z,16.3
2019-04-21T01:10:05.243Z,16.4
2019-04-21T01:11:18.988Z,16.4
2019-04-21T01:12:12.715Z,16.4
2019-04-21T01:13:23.617Z,16.5
2019-04-21T01:14:20.073Z,16.6
2019-04-21T01:15:26.198Z,16.6
2019-04-21T01:16:27.431Z,16.6
2019-04-21T01:17:21.970Z,16.6
2019-04-21T01:18:20.726Z,16.7
2019-04-21T01:19:21.124Z,16.6
2019-04-21T01:20:16.162Z,16.7
2019-04-21T01:21:14.014Z,16.7
2019-04-21T01:22:08.356Z,16.6
2019-04-21T01:23:10.445Z,16.6
2019-04-21T01:24:19.038Z,16.7
2019-04-21T01:25:19.976Z,16.7
2019-04-21T01:26:25.339Z,16.7
2019-04-21T01:27:26.299Z,16.6
2019-04-21T01:28:35.874Z,16.6
2019-04-21T01:29:41.572Z,16.7
2019-04-21T01:30:39.930Z,16.8
2019-04-21T01:31:36.509Z,16.7
2019-04-21T01:32:46.834Z,16.7
2019-04-21T01:33:47.206Z,16.7
2019-04-21T01:34:45.505Z,16.8
2019-04-21T01:35:43.924Z,16.7
2019-04-21T01:37:38.172Z,16.8
2019-04-21T01:38:34.380Z,16.8
2019-04-21T01:40:04.047Z,16.9
2019-04-21T01:41:08.630Z,16.8
2019-04-21T01:42:32.771Z,16.9
2019-04-21T01:43:33.311Z,16.8
2019-04-21T01:44:53.548Z,16.9
2019-04-21T01:45:37.010Z,17.0
2019-04-21T01:46:33.562Z,16.9
2019-04-21T01:47:44.689Z,17.0
2019-04-21T01:48:40.033Z,17.0
2019-04-21T01:49:34.522Z,17.0
2019-04-21T01:50:42.346Z,16.8
2019-04-21T01:51:59.625Z,16.8
2019-04-21T01:52:50.315Z,16.8
2019-04-21T01:53:53.470Z,16.8
2019-04-21T01:54:53.553Z,16.8
2019-04-21T01:55:58.838Z,16.8
2019-04-21T01:56:51.325Z,16.7
2019-04-21T01:57:52.727Z,16.6
2019-04-21T01:58:46.468Z,16.6
2019-04-21T01:59:54.322Z,16.8
2019-04-21T02:00:51.802Z,16.7
2019-04-21T02:02:02.037Z,16.7
2019-04-21T02:02:59.571Z,16.8
2019-04-21T02:04:02.856Z,16.8
2019-04-21T02:05:10.302Z,16.7
2019-04-21T02:06:13.682Z,16.7
2019-04-21T02:07:13.075Z,16.7
2019-04-21T02:08:05.400Z,16.6
2019-04-21T02:09:08.257Z,16.5
2019-04-21T02:10:14.470Z,16.5
2019-04-21T02:12:13.425Z,16.5
2019-04-21T02:13:11.759Z,16.5
2019-04-21T02:14:15.796Z,16.4
2019-04-21T02:15:36.071Z,16.3
2019-04-21T02:16:16.941Z,16.4
2019-04-21T02:17:16.384Z,16.3
2019-04-21T02:18:23.058Z,16.3
2019-04-21T02:19:21.584Z,16.2
2019-04-21T02:20:16.906Z,16.2
2019-04-21T02:21:24.488Z,16.1
2019-04-21T02:22:40.920Z,16.1
2019-04-21T02:23:34.594Z,16.2
2019-04-21T02:24:37.653Z,16.1
2019-04-21T02:25:34.963Z,16.1
2019-04-21T02:26:33.675Z,16.1
2019-04-21T02:27:36.491Z,16.2
2019-04-21T02:28:42.707Z,16.2
2019-04-21T02:29:40.916Z,16.2
2019-04-21T02:31:09.645Z,16.3
2019-04-21T02:31:49.904Z,16.2
2019-04-21T02:33:00.124Z,16.2
2019-04-21T02:33:55.711Z,16.3
2019-04-21T02:35:13.191Z,16.2
2019-04-21T02:36:15.112Z,16.3
2019-04-21T02:37:13.975Z,16.2
2019-04-21T02:38:01.649Z,16.1
2019-04-21T02:40:03.931Z,15.9
2019-04-21T02:42:02.015Z,15.9
2019-04-21T02:43:17.496Z,16.0
2019-04-21T02:45:09.152Z,15.8
2019-04-21T02:47:03.635Z,15.4
2019-04-21T02:48:12.927Z,15.4
2019-04-21T02:49:22.983Z,15.3
2019-04-21T02:50:21.868Z,15.2
2019-04-21T02:51:21.913Z,15.1
2019-04-21T02:52:30.023Z,14.9
2019-04-21T02:53:27.074Z,14.8
2019-04-21T02:54:45.886Z,14.8
2019-04-21T02:55:15.323Z,14.7
2019-04-21T02:56:27.958Z,14.7
2019-04-21T02:57:22.945Z,14.6
2019-04-21T02:58:34.716Z,14.5
2019-04-21T02:59:33.833Z,14.3
2019-04-21T03:01:31.219Z,14.3
2019-04-21T03:03:36.294Z,14.3
2019-04-21T03:04:34.779Z,14.3
2019-04-21T03:05:37.326Z,14.3
2019-04-21T03:06:59.411Z,14.2
2019-04-21T03:07:31.844Z,14.4
2019-04-21T03:08:44.765Z,14.4
2019-04-21T03:10:51.787Z,14.5
2019-04-21T03:11:44.716Z,14.6
2019-04-21T03:12:39.232Z,14.7
2019-04-21T03:14:01.026Z,14.6
2019-04-21T03:15:02.485Z,14.5
2019-04-21T03:15:59.807Z,14.3
2019-04-21T03:17:05.805Z,14.4
2019-04-21T03:19:06.678Z,14.3
2019-04-21T03:20:06.871Z,14.3
2019-04-21T03:21:03.127Z,14.3
2019-04-21T03:21:57.397Z,14.3
2019-04-21T03:23:02.060Z,14.3
2019-04-21T03:24:01.232Z,14.4
2019-04-21T03:25:22.889Z,14.4
2019-04-21T03:26:14.368Z,14.4
2019-04-21T03:28:05.698Z,14.3
2019-04-21T03:29:11.862Z,14.3
2019-04-21T03:30:14.168Z,14.2
2019-04-21T03:35:43.851Z,14.0
2019-04-21T03:37:23.204Z,14.0
2019-04-21T03:38:20.868Z,13.9
2019-04-21T03:39:17.974Z,13.8
2019-04-21T03:41:35.398Z,13.6
2019-04-21T03:42:33.845Z,13.5
2019-04-21T03:44:43.644Z,13.6
2019-04-21T03:45:31.328Z,13.6
2019-04-21T03:46:32.559Z,13.6
2019-04-21T03:47:30.948Z,13.5
2019-04-21T03:48:35.650Z,13.5
2019-04-21T03:50:33.776Z,13.4
2019-04-21T03:51:42.205Z,13.7
2019-04-21T03:53:40.022Z,13.9
2019-04-21T03:54:41.761Z,13.8
2019-04-21T03:57:00.863Z,13.7
2019-04-21T03:58:05.156Z,13.8
2019-04-21T04:00:03.640Z,13.7
2019-04-21T04:02:08.620Z,13.9
2019-04-21T04:03:13.736Z,13.9
2019-04-21T04:04:52.795Z,13.8
2019-04-21T04:07:06.021Z,13.7
2019-04-21T04:08:09.175Z,13.7
2019-04-21T04:09:19.477Z,13.7
2019-04-21T04:10:08.200Z,13.7
2019-04-21T04:13:04.627Z,13.8
2019-04-21T04:14:18.242Z,13.9
2019-04-21T04:15:18.291Z,14.1
2019-04-21T04:16:10.667Z,14.0
2019-04-21T04:18:23.355Z,14.1
2019-04-21T04:19:33.092Z,14.0
2019-04-21T04:20:25.838Z,14.2
2019-04-21T04:21:20.224Z,14.1
2019-04-21T04:22:20.943Z,14.2
2019-04-21T04:23:24.933Z,14.3
2019-04-21T04:24:33.996Z,14.3
2019-04-21T04:25:35.490Z,14.4
2019-04-21T04:26:22.179Z,14.3
2019-04-21T04:27:37.733Z,14.4
2019-04-21T04:28:28.743Z,14.4
2019-04-21T04:29:30.041Z,14.3
2019-04-21T04:30:31.654Z,14.5
2019-04-21T04:31:37.092Z,14.6
2019-04-21T04:32:41.948Z,14.7
2019-04-21T04:34:40.646Z,14.9
2019-04-21T04:35:52.883Z,14.8
2019-04-21T04:39:08.328Z,14.9
2019-04-21T04:39:56.253Z,14.9
2019-04-21T04:40:51.679Z,15.0
2019-04-21T04:41:53.045Z,15.0
2019-04-21T04:43:55.212Z,14.9
2019-04-21T04:45:56.317Z,15.0
2019-04-21T04:46:59.434Z,15.1
2019-04-21T04:49:54.967Z,15.2
2019-04-21T04:53:07.721Z,15.0
2019-04-21T04:54:28.497Z,15.0
2019-04-21T04:55:01.773Z,15.1
2019-04-21T04:56:08.144Z,15.2
2019-04-21T04:58:06.868Z,15.3
2019-04-21T05:02:26.496Z,15.1
2019-04-21T05:03:18.943Z,15.1
2019-04-21T05:04:15.918Z,15.1
2019-04-21T05:05:19.489Z,14.9
2019-04-21T05:06:40.779Z,15.0
2019-04-21T05:07:21.299Z,14.9
2019-04-21T05:08:34.148Z,15.0
2019-04-21T05:10:29.347Z,14.7
2019-04-21T05:12:24.797Z,14.8
2019-04-21T05:13:27.266Z,14.8
2019-04-21T05:15:41.693Z,15.0
2019-04-21T05:16:41.246Z,15.2
2019-04-21T05:17:38.171Z,15.3
2019-04-21T05:18:48.916Z,15.2
2019-04-21T05:19:39.031Z,15.4
2019-04-21T05:20:35.837Z,15.4
2019-04-21T05:22:35.473Z,15.4
2019-04-21T05:23:35.127Z,15.3
2019-04-21T05:24:28.339Z,15.3
2019-04-21T05:25:26.685Z,15.3
2019-04-21T05:26:32.773Z,15.3
2019-04-21T05:27:33.413Z,15.3
2019-04-21T05:28:32.767Z,15.2
2019-04-21T05:29:37.806Z,15.2
2019-04-21T05:30:48.977Z,15.2
2019-04-21T05:31:47.674Z,15.2
2019-04-21T05:32:45.106Z,15.3
2019-04-21T05:33:47.532Z,15.3
2019-04-21T05:34:42.692Z,15.3
2019-04-21T05:35:48.918Z,15.4
2019-04-21T05:36:52.425Z,15.4
2019-04-21T05:37:47.680Z,15.4
2019-04-21T05:39:51.267Z,15.4
2019-04-21T05:40:48.456Z,15.3
2019-04-21T05:41:44.111Z,15.3
2019-04-21T05:42:57.893Z,15.1
2019-04-21T05:43:59.566Z,15.1
2019-04-21T05:45:16.024Z,15.0
2019-04-21T05:46:04.706Z,15.0
2019-04-21T05:47:14.227Z,14.9
2019-04-21T05:48:24.234Z,15.0
2019-04-21T05:49:05.839Z,15.0
2019-04-21T05:50:00.817Z,14.9
2019-04-21T05:51:03.750Z,14.9
2019-04-21T05:52:06.691Z,14.8
2019-04-21T05:53:08.215Z,14.8
2019-04-21T05:54:23.091Z,14.9
2019-04-21T05:55:18.394Z,14.9
2019-04-21T05:56:17.433Z,15.0
2019-04-21T05:57:14.572Z,15.1
2019-04-21T05:58:11.970Z,15.1
2019-04-21T05:59:21.812Z,15.2
2019-04-21T06:00:23.668Z,15.2
2019-04-21T06:01:32.839Z,15.1
2019-04-21T06:02:30.701Z,14.9
2019-04-21T06:03:36.897Z,14.8
2019-04-21T06:04:38.835Z,14.8
2019-04-21T06:05:37.884Z,14.7
2019-04-21T06:06:33.611Z,14.6
2019-04-21T06:08:30.853Z,14.3
2019-04-21T06:09:34.953Z,14.1
2019-04-21T06:10:44.654Z,14.1
2019-04-21T06:11:35.997Z,14.0
2019-04-21T06:12:43.129Z,13.8
2019-04-21T06:14:46.883Z,13.7
2019-04-21T06:15:49.984Z,13.7
2019-04-21T06:16:54.321Z,13.7
2019-04-21T06:17:55.000Z,13.6
2019-04-21T06:18:53.278Z,13.5
2019-04-21T06:20:56.907Z,13.5
2019-04-21T06:21:51.502Z,13.5
2019-04-21T06:23:00.705Z,13.6
2019-04-21T06:23:49.732Z,13.6
2019-04-21T06:25:24.345Z,13.7
2019-04-21T06:26:08.758Z,13.8
2019-04-21T06:27:57.246Z,14.2
2019-04-21T06:29:01.213Z,14.3
2019-04-21T06:29:58.932Z,14.6
2019-04-21T06:32:20.401Z,14.9
2019-04-21T06:33:01.902Z,15.1
2019-04-21T06:34:11.341Z,15.2
2019-04-21T06:35:24.235Z,15.4
2019-04-21T06:37:37.369Z,15.7
2019-04-21T06:38:28.404Z,15.8
2019-04-21T06:39:17.925Z,16.0
2019-04-21T06:40:24.517Z,16.1
2019-04-21T06:41:21.362Z,16.4
2019-04-21T06:42:14.669Z,16.5
2019-04-21T06:43:41.695Z,16.5
2019-04-21T06:44:27.855Z,16.6
2019-04-21T06:45:31.789Z,16.8
2019-04-21T06:46:30.637Z,17.0
2019-04-21T06:47:32.280Z,17.1
2019-04-21T06:48:37.271Z,17.1
2019-04-21T06:49:25.072Z,17.2
2019-04-21T06:50:30.235Z,17.3
2019-04-21T06:51:30.580Z,17.5
2019-04-21T06:52:46.674Z,17.6
2019-04-21T06:53:42.577Z,17.7
2019-04-21T06:54:49.496Z,17.8
2019-04-21T06:55:35.184Z,18.0
2019-04-21T06:56:40.930Z,18.1
2019-04-21T06:57:40.393Z,18.2
2019-04-21T06:58:39.955Z,18.3
2019-04-21T06:59:41.485Z,18.4
2019-04-21T07:00:45.614Z,18.5
2019-04-21T07:02:13.238Z,18.5
2019-04-21T07:02:58.746Z,18.6
2019-04-21T07:04:03.571Z,18.5
2019-04-21T07:04:50.259Z,18.6
2019-04-21T07:05:57.534Z,18.7
2019-04-21T07:06:57.500Z,18.8
2019-04-21T07:08:07.624Z,19.0
2019-04-21T07:09:04.339Z,19.2
2019-04-21T07:09:58.533Z,19.3
2019-04-21T07:10:59.159Z,19.4
2019-04-21T07:11:55.072Z,19.6
2019-04-21T07:13:00.369Z,19.6
2019-04-21T07:14:23.715Z,19.6
2019-04-21T07:15:22.395Z,19.5
2019-04-21T07:16:04.568Z,19.5
2019-04-21T07:17:11.557Z,19.6
2019-04-21T07:18:09.287Z,19.6
2019-04-21T07:19:13.218Z,19.5
2019-04-21T07:20:12.489Z,19.5
2019-04-21T07:21:09.625Z,19.6
2019-04-21T07:22:12.575Z,19.7
2019-04-21T07:23:19.849Z,19.9
2019-04-21T07:24:22.736Z,20.0
2019-04-21T07:25:18.219Z,19.9
2019-04-21T07:26:20.924Z,20.0
2019-04-21T07:27:24.128Z,20.1
2019-04-21T07:28:20.927Z,20.2
2019-04-21T07:29:23.675Z,20.3
2019-04-21T07:30:25.581Z,20.3
2019-04-21T07:31:25.214Z,20.4
2019-04-21T07:32:27.399Z,20.6
2019-04-21T07:33:49.301Z,20.5
2019-04-21T07:34:33.351Z,20.5
2019-04-21T07:35:31.779Z,20.4
2019-04-21T07:37:06.119Z,20.4
2019-04-21T07:38:10.011Z,20.5
2019-04-21T07:39:40.728Z,20.6
2019-04-21T07:40:42.973Z,20.7
2019-04-21T07:42:13.677Z,20.7
2019-04-21T07:43:17.673Z,20.9
2019-04-21T07:44:18.123Z,21.0
2019-04-21T07:45:21.228Z,21.1
2019-04-21T07:46:16.839Z,21.4
2019-04-21T07:47:27.041Z,21.3
2019-04-21T07:48:28.907Z,21.3
2019-04-21T07:49:26.471Z,21.6
2019-04-21T07:50:35.085Z,21.6
2019-04-21T07:51:31.742Z,21.6
2019-04-21T07:52:37.759Z,21.7
2019-04-21T07:53:56.984Z,21.7
2019-04-21T07:54:41.988Z,21.8
2019-04-21T07:56:25.524Z,21.8
2019-04-21T07:57:36.637Z,21.9
2019-04-21T07:58:47.577Z,21.8
2019-04-21T07:59:48.579Z,21.8
2019-04-21T08:01:48.273Z,21.9
2019-04-21T08:02:49.705Z,22.0
2019-04-21T08:03:50.723Z,21.9
2019-04-21T08:05:52.959Z,22.0
2019-04-21T08:06:51.974Z,22.0
2019-04-21T08:08:52.513Z,22.2
2019-04-21T08:09:51.450Z,22.2
2019-04-21T08:10:57.273Z,22.1
2019-04-21T08:11:51.829Z,22.0
2019-04-21T08:12:54.418Z,22.0
2019-04-21T08:14:04.593Z,22.1
2019-04-21T08:15:14.594Z,22.2
2019-04-21T08:16:04.745Z,22.2
2019-04-21T08:17:04.935Z,22.1
2019-04-21T08:18:07.532Z,22.2
2019-04-21T08:19:08.544Z,22.2
2019-04-21T08:20:09.207Z,22.1
2019-04-21T08:21:05.809Z,22.2
2019-04-21T08:22:18.105Z,22.4
2019-04-21T08:23:13.016Z,22.3
2019-04-21T08:24:14.973Z,22.2
2019-04-21T08:25:14.915Z,22.3
2019-04-21T08:26:18.521Z,22.3
2019-04-21T08:27:19.055Z,22.2
2019-04-21T08:28:22.510Z,22.4
2019-04-21T08:29:26.020Z,22.6
2019-04-21T08:30:26.087Z,22.7
2019-04-21T08:31:34.397Z,22.7
2019-04-21T08:32:40.946Z,22.6
2019-04-21T08:33:33.729Z,22.9
2019-04-21T08:34:29.915Z,22.9
2019-04-21T08:36:28.085Z,23.3
2019-04-21T08:37:31.316Z,23.2
2019-04-21T08:38:35.958Z,23.2
2019-04-21T08:39:37.935Z,23.1
2019-04-21T08:40:51.339Z,23.2
2019-04-21T08:41:39.600Z,23.2
2019-04-21T08:42:38.696Z,23.5
2019-04-21T08:43:43.058Z,23.6
2019-04-21T08:44:47.867Z,23.7
2019-04-21T08:45:46.853Z,23.7
2019-04-21T08:46:47.189Z,23.7
2019-04-21T08:47:50.132Z,23.7
2019-04-21T08:48:52.644Z,23.8
2019-04-21T08:49:47.325Z,23.8
2019-04-21T08:50:54.066Z,23.9
2019-04-21T08:51:53.894Z,23.8
2019-04-21T08:52:56.198Z,23.7
2019-04-21T08:54:05.590Z,23.6
2019-04-21T08:54:56.047Z,23.3
2019-04-21T08:56:07.492Z,23.3
2019-04-21T08:57:05.955Z,23.3
2019-04-21T08:58:10.965Z,23.2
2019-04-21T08:59:03.882Z,23.4
2019-04-21T09:00:08.805Z,23.4
2019-04-21T09:01:08.847Z,23.4
2019-04-21T09:02:07.644Z,23.1
2019-04-21T09:03:11.776Z,23.0
2019-04-21T09:04:07.499Z,22.9
2019-04-21T09:05:04.649Z,23.0
2019-04-21T09:06:13.750Z,23.2
2019-04-21T09:07:12.987Z,23.2
2019-04-21T09:08:10.309Z,23.2
2019-04-21T09:09:19.836Z,23.2
2019-04-21T09:10:17.306Z,23.1
2019-04-21T09:11:16.189Z,23.1
2019-04-21T09:12:14.988Z,23.1
2019-04-21T09:13:18.255Z,23.1
2019-04-21T09:14:17.845Z,23.1
2019-04-21T09:15:21.675Z,23.3
2019-04-21T09:16:21.988Z,23.4
2019-04-21T09:17:20.786Z,23.6
2019-04-21T09:18:18.578Z,23.8
2019-04-21T09:19:40.104Z,23.8
2019-04-21T09:20:33.830Z,23.8
2019-04-21T09:21:31.533Z,23.7
2019-04-21T09:22:29.784Z,23.6
2019-04-21T09:23:36.458Z,23.5
2019-04-21T09:24:33.289Z,23.5
2019-04-21T09:25:44.678Z,23.4
2019-04-21T09:26:34.250Z,23.5
2019-04-21T09:27:36.614Z,23.6
2019-04-21T09:28:35.685Z,23.6
2019-04-21T09:29:32.412Z,23.6
2019-04-21T09:30:24.257Z,23.5
2019-04-21T09:31:32.000Z,23.6
2019-04-21T09:32:29.336Z,23.6
2019-04-21T09:33:35.774Z,23.7
2019-04-21T09:34:35.784Z,23.8
2019-04-21T09:35:31.543Z,23.9
2019-04-21T09:36:38.967Z,24.0
2019-04-21T09:37:44.374Z,24.0
2019-04-21T09:38:38.177Z,23.9
2019-04-21T09:39:43.327Z,24.0
2019-04-21T09:40:45.528Z,24.0
2019-04-21T09:41:40.726Z,24.1
2019-04-21T09:42:47.382Z,24.2
2019-04-21T09:43:46.598Z,24.2
2019-04-21T09:44:45.456Z,24.2
2019-04-21T09:45:45.273Z,24.1
2019-04-21T09:46:50.513Z,24.1
2019-04-21T09:47:57.102Z,24.0
2019-04-21T09:48:55.425Z,24.1
2019-04-21T09:49:49.878Z,24.2
2019-04-21T09:50:52.371Z,24.3
2019-04-21T09:51:52.975Z,24.4
2019-04-21T09:52:58.700Z,24.4
2019-04-21T09:54:02.070Z,24.4
2019-04-21T09:55:04.182Z,24.2
2019-04-21T09:56:01.722Z,24.1
2019-04-21T09:57:03.997Z,24.1
2019-04-21T09:58:12.351Z,24.2
2019-04-21T09:59:11.338Z,24.3
2019-04-21T10:00:08.772Z,24.2
2019-04-21T10:01:14.389Z,24.2
2019-04-21T10:02:11.613Z,24.2
2019-04-21T10:03:11.704Z,24.1
2019-04-21T10:04:09.844Z,24.1
2019-04-21T10:05:10.128Z,24.3
2019-04-21T10:06:13.946Z,24.5
2019-04-21T10:07:24.354Z,24.6
2019-04-21T10:08:14.531Z,24.7
2019-04-21T10:09:18.403Z,24.8
2019-04-21T10:10:17.230Z,24.8
2019-04-21T10:11:19.603Z,24.6
2019-04-21T10:12:19.970Z,24.6
2019-04-21T10:13:20.910Z,24.5
2019-04-21T10:14:22.285Z,24.5
2019-04-21T10:15:25.054Z,24.5
2019-04-21T10:16:26.072Z,24.6
2019-04-21T10:17:27.523Z,24.6
2019-04-21T10:18:27.735Z,24.6
2019-04-21T10:19:29.765Z,24.8
2019-04-21T10:20:30.872Z,24.8
2019-04-21T10:21:31.958Z,24.9
2019-04-21T10:22:33.277Z,24.8
2019-04-21T10:23:35.798Z,24.9
2019-04-21T10:24:36.270Z,24.9
2019-04-21T10:25:38.623Z,24.8
2019-04-21T10:26:38.910Z,24.7
2019-04-21T10:27:41.119Z,24.7
2019-04-21T10:28:41.688Z,24.6
2019-04-21T10:29:44.816Z,24.4
2019-04-21T10:30:44.786Z,24.2
2019-04-21T10:31:46.839Z,24.2
2019-04-21T10:32:48.207Z,24.2
2019-04-21T10:33:48.528Z,24.4
2019-04-21T10:34:49.904Z,24.5
2019-04-21T10:35:51.287Z,24.5
2019-04-21T10:36:53.088Z,24.5
2019-04-21T10:38:05.329Z,24.5
2019-04-21T10:38:57.113Z,24.7
2019-04-21T10:39:57.777Z,24.7
2019-04-21T10:40:59.233Z,24.7
2019-04-21T10:41:59.592Z,24.8
2019-04-21T10:43:00.821Z,24.8
2019-04-21T10:44:03.054Z,24.9
2019-04-21T10:45:03.620Z,24.8
2019-04-21T10:46:04.964Z,24.7
2019-04-21T10:47:06.898Z,24.6
2019-04-21T10:48:07.707Z,24.4
2019-04-21T10:49:09.103Z,24.3
2019-04-21T10:50:10.929Z,24.3
2019-04-21T10:51:12.921Z,24.3
2019-04-21T10:52:13.163Z,24.2
2019-04-21T10:53:14.575Z,24.3
2019-04-21T10:54:15.940Z,24.3
2019-04-21T10:55:37.976Z,24.4
2019-04-21T10:56:26.949Z,24.5
2019-04-21T10:57:20.084Z,24.4
2019-04-21T10:58:22.416Z,24.4
2019-04-21T10:59:24.829Z,24.5
2019-04-21T11:00:24.176Z,24.7
2019-04-21T11:01:25.400Z,24.8
2019-04-21T11:02:26.785Z,24.7
2019-04-21T11:03:29.100Z,24.8
2019-04-21T11:04:34.594Z,24.8
2019-04-21T11:05:30.861Z,24.8
2019-04-21T11:06:32.584Z,24.9
2019-04-21T11:07:38.977Z,25.0
2019-04-21T11:08:40.960Z,24.9
2019-04-21T11:09:36.293Z,24.9
2019-04-21T11:10:38.170Z,24.9
2019-04-21T11:11:39.743Z,24.8
2019-04-21T11:12:41.397Z,24.7
2019-04-21T11:13:41.719Z,24.9
2019-04-21T11:14:43.151Z,24.8
2019-04-21T11:15:45.359Z,24.8
2019-04-21T11:16:47.497Z,24.8
2019-04-21T11:17:48.723Z,24.8
2019-04-21T11:18:48.527Z,24.7
2019-04-21T11:19:50.603Z,24.8
2019-04-21T11:20:51.270Z,24.7
2019-04-21T11:21:52.726Z,24.8
2019-04-21T11:22:53.981Z,24.8
2019-04-21T11:23:56.462Z,24.8
2019-04-21T11:24:56.807Z,24.9
2019-04-21T11:25:58.154Z,24.9
2019-04-21T11:27:00.092Z,25.0
2019-04-21T11:28:00.827Z,25.0
2019-04-21T11:29:03.054Z,25.1
2019-04-21T11:30:03.452Z,25.1
2019-04-21T11:31:04.947Z,25.2
2019-04-21T11:32:07.100Z,25.3
2019-04-21T11:33:08.972Z,25.2
2019-04-21T11:34:09.208Z,25.3
2019-04-21T11:35:10.213Z,25.4
2019-04-21T11:36:11.605Z,25.5
2019-04-21T11:37:14.262Z,25.4
2019-04-21T11:38:18.961Z,25.6
2019-04-21T11:39:25.664Z,25.6
2019-04-21T11:40:18.544Z,25.6
2019-04-21T11:41:19.394Z,25.6
2019-04-21T11:42:19.706Z,25.6
2019-04-21T11:43:21.983Z,25.5
2019-04-21T11:44:24.674Z,25.5
2019-04-21T11:45:24.322Z,25.5
2019-04-21T11:46:26.648Z,25.4
2019-04-21T11:47:26.495Z,25.4
2019-04-21T11:48:28.319Z,25.4
2019-04-21T11:49:31.980Z,25.4
2019-04-21T11:50:30.913Z,25.4
2019-04-21T11:51:33.164Z,25.5
2019-04-21T11:52:34.673Z,25.4
2019-04-21T11:53:34.858Z,25.4
2019-04-21T11:54:37.064Z,25.3
2019-04-21T11:55:41.341Z,25.3
2019-04-21T11:56:38.916Z,25.4
2019-04-21T11:57:44.631Z,25.5
2019-04-21T11:58:41.565Z,25.4
2019-04-21T11:59:43.771Z,25.5
2019-04-21T12:00:45.290Z,25.5
2019-04-21T12:01:45.675Z,25.5
2019-04-21T12:02:47.670Z,25.6
2019-04-21T12:03:49.528Z,25.4
2019-04-21T12:04:49.609Z,25.4
2019-04-21T12:05:51.180Z,25.3
2019-04-21T12:06:53.997Z,25.3
2019-04-21T12:07:53.650Z,25.4
2019-04-21T12:08:57.687Z,25.4
2019-04-21T12:09:57.503Z,25.4
2019-04-21T12:10:57.871Z,25.4
2019-04-21T12:11:59.129Z,25.3
2019-04-21T12:13:01.292Z,25.5
2019-04-21T12:14:01.761Z,25.6
2019-04-21T12:15:03.907Z,25.6
2019-04-21T12:16:05.205Z,25.6
2019-04-21T12:17:05.890Z,25.5
2019-04-21T12:18:08.004Z,25.4
2019-04-21T12:19:09.173Z,25.4
2019-04-21T12:20:10.537Z,25.4
2019-04-21T12:21:11.486Z,25.4
2019-04-21T12:22:21.057Z,25.4
2019-04-21T12:23:14.337Z,25.4
2019-04-21T12:24:15.407Z,25.3
2019-04-21T12:25:16.666Z,25.1
2019-04-21T12:26:18.170Z,25.2
2019-04-21T12:27:20.257Z,25.3
2019-04-21T12:28:21.763Z,25.2
2019-04-21T12:29:22.779Z,25.3
2019-04-21T12:30:24.050Z,25.3
2019-04-21T12:31:25.507Z,25.4
2019-04-21T12:32:26.309Z,25.4
2019-04-21T12:33:27.913Z,25.5
2019-04-21T12:34:30.213Z,25.4
2019-04-21T12:35:30.195Z,25.3
2019-04-21T12:36:31.759Z,25.4
2019-04-21T12:37:33.017Z,25.5
2019-04-21T12:38:42.633Z,25.6
2019-04-21T12:39:36.792Z,25.8
2019-04-21T12:40:36.983Z,25.7
2019-04-21T12:41:38.480Z,25.9
2019-04-21T12:42:41.714Z,25.9
2019-04-21T12:43:42.427Z,26.1
2019-04-21T12:44:43.324Z,26.2
2019-04-21T12:45:44.102Z,26.2
2019-04-21T12:46:45.597Z,26.1
2019-04-21T12:47:48.881Z,26.1
2019-04-21T12:48:47.804Z,26.1
2019-04-21T12:49:49.853Z,26.1
2019-04-21T12:50:51.903Z,26.2
2019-04-21T12:51:51.889Z,26.1
2019-04-21T12:52:53.665Z,26.3
2019-04-21T12:53:54.730Z,26.4
2019-04-21T12:54:57.520Z,26.4
2019-04-21T12:55:57.864Z,26.5
2019-04-21T12:56:59.212Z,26.5
2019-04-21T12:58:01.313Z,26.2
2019-04-21T12:59:01.610Z,25.9
2019-04-21T13:00:02.968Z,25.7
2019-04-21T13:01:05.038Z,25.8
2019-04-21T13:02:05.538Z,25.8
2019-04-21T13:03:07.733Z,25.8
2019-04-21T13:04:08.269Z,25.8
2019-04-21T13:05:09.650Z,25.8
2019-04-21T13:06:11.715Z,25.9
2019-04-21T13:07:13.166Z,25.9
2019-04-21T13:08:13.729Z,25.9
2019-04-21T13:09:18.335Z,25.8
2019-04-21T13:10:16.467Z,25.7
2019-04-21T13:11:19.100Z,25.8
2019-04-21T13:12:19.393Z,25.9
2019-04-21T13:13:21.852Z,25.9
2019-04-21T13:14:22.150Z,26.1
2019-04-21T13:15:23.276Z,26.2
2019-04-21T13:16:25.443Z,26.3
2019-04-21T13:17:25.992Z,26.4
2019-04-21T13:18:27.377Z,26.3
2019-04-21T13:19:29.360Z,26.2
2019-04-21T13:20:30.106Z,26.1
2019-04-21T13:21:31.987Z,26.1
2019-04-21T13:22:34.076Z,26.0
2019-04-21T13:23:34.927Z,25.9
2019-04-21T13:24:35.926Z,25.9
2019-04-21T13:25:38.065Z,26.0
2019-04-21T13:26:45.636Z,25.9
2019-04-21T13:27:40.749Z,25.9
2019-04-21T13:28:41.047Z,25.9
2019-04-21T13:29:42.397Z,25.9
2019-04-21T13:30:44.426Z,26.0
2019-04-21T13:31:45.115Z,26.0
2019-04-21T13:32:47.081Z,25.9
2019-04-21T13:33:48.118Z,25.8
2019-04-21T13:34:50.796Z,25.6
2019-04-21T13:35:50.942Z,25.5
2019-04-21T13:37:31.425Z,25.6
2019-04-21T13:38:38.711Z,25.7
2019-04-21T13:40:03.421Z,25.7
2019-04-21T13:40:54.447Z,25.9
2019-04-21T13:41:50.510Z,25.8
2019-04-21T13:42:47.694Z,25.9
2019-04-21T13:43:43.351Z,26.0
2019-04-21T13:44:44.595Z,26.1
2019-04-21T13:45:45.814Z,26.1
2019-04-21T13:46:47.134Z,26.4
2019-04-21T13:47:48.549Z,26.4
2019-04-21T13:48:50.729Z,26.4
2019-04-21T13:49:50.613Z,26.2
2019-04-21T13:50:53.332Z,26.1
2019-04-21T13:51:54.140Z,26.0
2019-04-21T13:52:54.677Z,26.1
2019-04-21T13:53:56.053Z,26.1
2019-04-21T13:54:57.914Z,26.0
2019-04-21T13:56:00.298Z,26.0
2019-04-21T13:57:00.677Z,26.0
2019-04-21T13:58:02.079Z,26.0
2019-04-21T13:59:04.128Z,26.1
2019-04-21T14:00:05.456Z,26.0
2019-04-21T14:01:05.640Z,26.1
2019-04-21T14:02:06.985Z,26.1
2019-04-21T14:03:08.171Z,26.2
2019-04-21T14:04:09.682Z,26.1
2019-04-21T14:05:13.401Z,26.0
2019-04-21T14:06:12.247Z,26.0
2019-04-21T14:07:14.331Z,26.0
2019-04-21T14:08:15.536Z,26.1
2019-04-21T14:09:17.637Z,26.1
2019-04-21T14:10:17.940Z,26.1
2019-04-21T14:11:19.765Z,26.0
2019-04-21T14:12:21.186Z,26.0
2019-04-21T14:13:22.492Z,25.9
2019-04-21T14:14:23.915Z,25.9
2019-04-21T14:15:24.405Z,25.9
2019-04-21T14:16:26.613Z,26.0
2019-04-21T14:17:27.112Z,25.9
2019-04-21T14:18:28.887Z,25.8
2019-04-21T14:19:31.047Z,25.9
2019-04-21T14:20:31.264Z,25.9
2019-04-21T14:21:33.673Z,25.9
2019-04-21T14:22:34.024Z,25.9
2019-04-21T14:23:40.798Z,26.0
2019-04-21T14:24:37.123Z,26.1
2019-04-21T14:25:37.944Z,26.1
2019-04-21T14:26:40.385Z,26.2
2019-04-21T14:27:41.802Z,26.2
2019-04-21T14:28:42.951Z,26.2
2019-04-21T14:29:43.852Z,26.1
2019-04-21T14:30:46.042Z,26.0
2019-04-21T14:31:46.442Z,26.0
2019-04-21T14:32:47.638Z,26.0
2019-04-21T14:33:49.937Z,26.0
2019-04-21T14:34:50.697Z,26.0
2019-04-21T14:35:52.713Z,26.1
2019-04-21T14:36:52.959Z,26.1
2019-04-21T14:37:54.128Z,26.1
2019-04-21T14:38:56.516Z,26.1
2019-04-21T14:40:03.996Z,26.1